Time;durP1;ratioP1;P1;durP2;ratioP2;P2;SDS_P1;SDS_P2;PMS_P1;PMS_P2;Temp;Humidity;BMP_temperature;BMP_pressure;BME280_temperature;BME280_humidity;BME280_pressure;Samples;Min_cycle;Max_cycle;Signal;HPM_P1;HPM_P2
2021/01/01 00:00:03;;;;;;;16.23;4.93;;;17.20;53.80;;;;;;1060575;27;20495;-71
2021/01/01 00:00:34;;;;;;;15.70;5.07;;;17.20;53.70;;;;;;1061429;27;20511;-72
2021/01/01 00:01:05;;;;;;;15.90;5.00;;;17.20;53.70;;;;;;1057821;27;20011;-71
2021/01/01 00:01:39;;;;;;;19.77;5.55;;;17.20;53.90;;;;;;1057716;27;20016;-71
2021/01/01 00:02:10;;;;;;;20.90;5.43;;;17.10;54.00;;;;;;1057304;27;20015;-71
2021/01/01 00:02:43;;;;;;;17.92;4.65;;;17.10;54.30;;;;;;1056934;28;20045;-72
2021/01/01 00:03:15;;;;;;;19.27;5.25;;;17.10;54.30;;;;;;1058050;27;20015;-72
2021/01/01 00:03:46;;;;;;;20.90;5.80;;;17.10;54.40;;;;;;1061265;27;20007;-71
2021/01/01 00:04:18;;;;;;;28.75;5.80;;;17.00;54.40;;;;;;1062477;27;20016;-71
2021/01/01 00:04:49;;;;;;;22.88;5.68;;;17.00;54.40;;;;;;1059548;27;20051;-71
2021/01/01 00:05:21;;;;;;;13.88;4.47;;;17.10;54.20;;;;;;1058533;27;20484;-70
2021/01/01 00:05:52;;;;;;;18.55;5.25;;;17.00;54.00;;;;;;1058105;27;20047;-71
2021/01/01 00:06:23;;;;;;;22.27;5.28;;;17.10;53.90;;;;;;1059021;27;20044;-72
2021/01/01 00:06:56;;;;;;;19.58;4.93;;;17.00;54.00;;;;;;1060709;27;20015;-71
2021/01/01 00:07:27;;;;;;;20.08;5.65;;;17.00;54.20;;;;;;1061693;27;20064;-71
2021/01/01 00:07:59;;;;;;;21.50;5.43;;;17.00;54.40;;;;;;1062274;27;20015;-71
2021/01/01 00:08:30;;;;;;;19.48;5.38;;;17.00;54.40;;;;;;1065807;27;20379;-72
2021/01/01 00:09:03;;;;;;;15.77;5.05;;;17.00;54.50;;;;;;1064996;27;20372;-71
2021/01/01 00:09:34;;;;;;;19.63;5.05;;;16.90;54.60;;;;;;1063077;27;20463;-71
2021/01/01 00:10:06;;;;;;;19.23;5.40;;;16.90;54.70;;;;;;1064919;27;20479;-72
2021/01/01 00:10:38;;;;;;;18.58;5.07;;;16.90;54.70;;;;;;1061644;27;20049;-71
2021/01/01 00:11:14;;;;;;;15.30;4.93;;;16.90;54.70;;;;;;1060131;27;20012;-71
2021/01/01 00:11:50;;;;;;;18.13;5.90;;;16.90;54.80;;;;;;1054485;28;20019;-71
2021/01/01 00:12:21;;;;;;;20.92;5.22;;;16.80;54.90;;;;;;1056401;27;20055;-72
2021/01/01 00:12:52;;;;;;;20.73;5.28;;;16.80;54.80;;;;;;1054905;28;20078;-71
2021/01/01 00:13:24;;;;;;;24.17;5.50;;;16.80;54.80;;;;;;1054993;27;20027;-72
2021/01/01 00:13:55;;;;;;;17.65;5.30;;;16.80;54.80;;;;;;1060223;27;21602;-71
2021/01/01 00:14:26;;;;;;;20.65;5.40;;;16.80;54.70;;;;;;1059351;27;20023;-71
2021/01/01 00:14:58;;;;;;;16.00;4.45;;;16.80;54.70;;;;;;1062669;27;20101;-71
2021/01/01 00:15:29;;;;;;;23.35;5.35;;;16.80;54.80;;;;;;1065272;27;20102;-71
2021/01/01 00:16:01;;;;;;;18.95;5.05;;;16.80;54.90;;;;;;1065534;27;20011;-71
2021/01/01 00:16:32;;;;;;;17.98;5.30;;;16.80;54.90;;;;;;1063035;27;20148;-71
2021/01/01 00:17:05;;;;;;;18.73;4.95;;;16.80;55.20;;;;;;1058711;27;20080;-71
2021/01/01 00:17:37;;;;;;;23.60;6.03;;;16.80;55.10;;;;;;1058814;27;20102;-71
2021/01/01 00:18:08;;;;;;;17.40;5.00;;;16.70;55.30;;;;;;1058630;27;20043;-71
2021/01/01 00:18:41;;;;;;;19.73;4.97;;;16.70;55.30;;;;;;1054281;28;20342;-71
2021/01/01 00:19:13;;;;;;;18.92;5.57;;;16.70;55.40;;;;;;1058796;27;20056;-71
2021/01/01 00:19:44;;;;;;;15.75;4.68;;;16.70;55.30;;;;;;1058576;27;20015;-71
2021/01/01 00:20:16;;;;;;;22.30;5.10;;;16.70;55.40;;;;;;1060541;27;20012;-71
2021/01/01 00:20:47;;;;;;;19.77;4.95;;;16.70;55.60;;;;;;1065040;27;20317;-71
2021/01/01 00:21:19;;;;;;;18.38;5.28;;;16.70;56.10;;;;;;1058467;27;20413;-71
2021/01/01 00:21:50;;;;;;;21.20;5.22;;;16.60;56.20;;;;;;1059820;27;20019;-70
2021/01/01 00:22:21;;;;;;;20.95;5.97;;;16.60;56.00;;;;;;1061659;27;20456;-70
2021/01/01 00:22:53;;;;;;;21.08;5.70;;;16.60;55.80;;;;;;1062121;27;20426;-71
2021/01/01 00:23:24;;;;;;;21.92;5.85;;;16.60;55.80;;;;;;1066355;27;20090;-71
2021/01/01 00:23:56;;;;;;;24.17;5.80;;;16.60;55.80;;;;;;1066178;27;20355;-71
2021/01/01 00:24:28;;;;;;;23.00;5.70;;;16.60;55.90;;;;;;1065167;27;20013;-70
2021/01/01 00:24:59;;;;;;;22.48;5.18;;;16.60;55.90;;;;;;1058436;27;20015;-70
2021/01/01 00:25:31;;;;;;;20.48;5.13;;;16.60;55.90;;;;;;1055332;28;20398;-71
2021/01/01 00:26:02;;;;;;;18.85;5.22;;;16.60;55.80;;;;;;1051347;28;20062;-71
2021/01/01 00:26:34;;;;;;;17.50;5.38;;;16.50;55.90;;;;;;1053345;28;20026;-71
2021/01/01 00:27:06;;;;;;;24.33;6.00;;;16.50;55.80;;;;;;1057858;27;20334;-70
2021/01/01 00:27:38;;;;;;;17.35;4.90;;;16.50;55.80;;;;;;1062503;27;20015;-70
2021/01/01 00:28:09;;;;;;;20.40;5.55;;;16.50;55.90;;;;;;1064472;27;20432;-70
2021/01/01 00:28:42;;;;;;;18.00;5.75;;;16.50;56.00;;;;;;1060291;27;20052;-70
2021/01/01 00:29:13;;;;;;;18.55;5.28;;;16.40;56.20;;;;;;1057374;28;20498;-71
2021/01/01 00:29:45;;;;;;;18.48;5.20;;;16.40;56.10;;;;;;1057548;28;20453;-70
2021/01/01 00:30:17;;;;;;;20.50;6.00;;;16.40;56.00;;;;;;1058008;27;20026;-70
2021/01/01 00:30:48;;;;;;;18.13;5.07;;;16.40;55.90;;;;;;1059872;27;20029;-70
2021/01/01 00:31:25;;;;;;;18.77;5.30;;;16.50;56.00;;;;;;1059697;27;20445;-70
2021/01/01 00:31:56;;;;;;;18.73;5.40;;;16.40;56.00;;;;;;1061722;27;20042;-71
2021/01/01 00:32:28;;;;;;;18.55;5.18;;;16.40;56.00;;;;;;1061440;27;20029;-70
2021/01/01 00:33:50;;;;;;;20.33;5.43;;;16.40;56.30;;;;;;1064697;27;20153;-70
2021/01/01 00:34:21;;;;;;;19.08;5.70;;;16.40;56.20;;;;;;1060136;27;20019;-70
2021/01/01 00:34:53;;;;;;;20.38;5.22;;;16.40;56.20;;;;;;1061177;27;20004;-70
2021/01/01 00:35:24;;;;;;;24.05;5.40;;;16.40;56.20;;;;;;1054822;28;20028;-70
2021/01/01 00:35:55;;;;;;;20.77;5.35;;;16.40;56.30;;;;;;1055997;27;20380;-70
2021/01/01 00:36:27;;;;;;;20.60;5.43;;;16.30;56.40;;;;;;1059324;27;20038;-71
2021/01/01 00:37:04;;;;;;;19.15;5.50;;;16.30;56.40;;;;;;1058999;27;20020;-70
2021/01/01 00:37:40;;;;;;;20.50;5.50;;;16.30;56.50;;;;;;1064041;27;20006;-70
2021/01/01 00:38:11;;;;;;;22.67;5.45;;;16.30;56.70;;;;;;1059064;27;20030;-71
2021/01/01 00:38:50;;;;;;;21.25;5.90;;;16.20;56.80;;;;;;1059858;27;20016;-71
2021/01/01 00:39:22;;;;;;;21.25;5.60;;;16.10;56.80;;;;;;1061759;27;20349;-71
2021/01/01 00:39:53;;;;;;;20.13;5.82;;;16.10;56.80;;;;;;1063369;27;20387;-71
2021/01/01 00:40:25;;;;;;;17.70;5.20;;;16.10;56.80;;;;;;1065950;27;20030;-70
2021/01/01 00:40:56;;;;;;;21.55;6.07;;;16.10;56.90;;;;;;1060272;27;20034;-70
2021/01/01 00:41:30;;;;;;;20.58;5.70;;;16.10;56.90;;;;;;1057761;27;20257;-71
2021/01/01 00:42:03;;;;;;;21.77;6.35;;;16.10;57.70;;;;;;1059246;27;20027;-71
2021/01/01 00:42:35;;;;;;;21.52;5.80;;;16.10;57.10;;;;;;1052845;28;20028;-71
2021/01/01 00:43:07;;;;;;;20.58;5.93;;;16.10;57.30;;;;;;1052458;28;20032;-71
2021/01/01 00:43:38;;;;;;;18.23;5.25;;;16.10;57.30;;;;;;1052767;28;20099;-71
2021/01/01 00:44:11;;;;;;;21.92;6.30;;;16.10;57.20;;;;;;1054828;27;20055;-71
2021/01/01 00:44:42;;;;;;;21.80;6.05;;;16.10;57.40;;;;;;1054365;28;20042;-70
2021/01/01 00:45:14;;;;;;;20.70;5.63;;;16.10;57.40;;;;;;1054104;28;20118;-71
2021/01/01 00:45:45;;;;;;;20.70;5.68;;;16.00;57.40;;;;;;1055028;28;20016;-71
2021/01/01 00:46:16;;;;;;;20.38;6.00;;;16.00;57.40;;;;;;1057780;27;20441;-71
2021/01/01 00:46:48;;;;;;;18.98;5.35;;;16.00;57.50;;;;;;1061937;27;20003;-71
2021/01/01 00:47:19;;;;;;;21.83;6.03;;;16.00;57.50;;;;;;1062570;27;20015;-71
2021/01/01 00:47:51;;;;;;;24.52;6.05;;;16.00;57.60;;;;;;1058022;27;20189;-71
2021/01/01 00:48:22;;;;;;;19.30;5.65;;;16.00;57.70;;;;;;1058888;27;20022;-72
2021/01/01 00:48:57;;;;;;;24.13;6.03;;;16.00;57.70;;;;;;1053931;28;20016;-71
2021/01/01 00:49:29;;;;;;;24.83;6.32;;;16.00;57.70;;;;;;1054400;28;20020;-72
2021/01/01 00:50:00;;;;;;;19.38;5.57;;;16.00;57.70;;;;;;1059961;27;20051;-72
2021/01/01 00:50:31;;;;;;;21.13;6.05;;;16.00;57.80;;;;;;1060767;27;20044;-72
2021/01/01 00:51:03;;;;;;;20.73;5.88;;;15.90;57.70;;;;;;1065578;27;20033;-72
2021/01/01 00:51:34;;;;;;;25.88;6.43;;;15.90;57.80;;;;;;1063366;27;20015;-71
2021/01/01 00:52:06;;;;;;;23.77;5.78;;;15.90;57.80;;;;;;1062639;27;20011;-71
2021/01/01 00:52:37;;;;;;;22.27;6.00;;;15.90;58.10;;;;;;1064255;27;20019;-70
2021/01/01 00:53:09;;;;;;;21.77;6.07;;;15.80;58.10;;;;;;1057859;27;20035;-71
2021/01/01 00:53:40;;;;;;;20.88;5.57;;;15.80;58.20;;;;;;1060602;27;20011;-71
2021/01/01 00:54:12;;;;;;;24.10;6.20;;;15.80;58.20;;;;;;1056935;28;20023;-71
2021/01/01 00:54:44;;;;;;;20.65;6.13;;;15.80;58.30;;;;;;1057647;28;20096;-71
2021/01/01 00:55:15;;;;;;;24.90;5.95;;;15.80;58.40;;;;;;1057120;28;20024;-71
2021/01/01 00:55:46;;;;;;;20.48;5.97;;;15.80;58.70;;;;;;1057717;27;20047;-72
2021/01/01 00:56:22;;;;;;;21.67;6.00;;;15.70;58.70;;;;;;1055699;28;20116;-71
2021/01/01 00:56:54;;;;;;;19.08;5.95;;;15.70;58.90;;;;;;1056852;27;20158;-71
2021/01/01 00:57:25;;;;;;;22.48;5.90;;;15.60;59.10;;;;;;1061769;27;20008;-71
2021/01/01 00:57:56;;;;;;;23.00;6.75;;;15.60;59.20;;;;;;1060148;27;20460;-71
2021/01/01 00:58:28;;;;;;;25.42;6.30;;;15.50;59.20;;;;;;1060609;27;20016;-71
2021/01/01 00:58:59;;;;;;;24.63;5.95;;;15.50;59.30;;;;;;1058967;27;20011;-70
2021/01/01 00:59:30;;;;;;;24.73;6.50;;;15.50;60.00;;;;;;1060788;27;20514;-71
2021/01/01 01:00:08;;;;;;;23.30;6.85;;;15.50;59.40;;;;;;1057178;27;20016;-71
2021/01/01 01:00:39;;;;;;;25.48;6.32;;;15.50;59.50;;;;;;1060479;27;20016;-71
2021/01/01 01:01:11;;;;;;;22.63;6.20;;;15.50;59.60;;;;;;1061207;27;20090;-71
2021/01/01 01:01:42;;;;;;;27.63;6.50;;;15.50;59.70;;;;;;1061039;27;20027;-71
2021/01/01 01:02:16;;;;;;;25.70;6.45;;;15.50;59.70;;;;;;1065817;27;20015;-71
2021/01/01 01:02:48;;;;;;;20.80;6.13;;;15.50;59.80;;;;;;1060273;27;20027;-71
2021/01/01 01:03:22;;;;;;;24.13;6.25;;;15.40;59.90;;;;;;1060187;27;20013;-71
2021/01/01 01:04:08;;;;;;;24.15;6.65;;;15.40;59.80;;;;;;1056610;28;20027;-71
2021/01/01 01:04:42;;;;;;;21.98;6.43;;;15.40;59.80;;;;;;1060264;27;20015;-71
2021/01/01 01:08:05;;;;;;;23.40;5.90;;;15.30;60.20;;;;;;1063122;27;20027;-71
2021/01/01 01:08:58;;;;;;;25.00;6.55;;;15.20;60.00;;;;;;1061073;27;20090;-71
2021/01/01 01:09:49;;;;;;;22.65;5.82;;;15.20;60.30;;;;;;1057374;28;20019;-71
2021/01/01 01:10:42;;;;;;;32.33;6.60;;;15.20;60.40;;;;;;1052910;27;20123;-71
2021/01/01 01:13:57;;;;;;;20.77;6.13;;;15.00;61.00;;;;;;1064454;27;20034;-71
2021/01/01 01:14:52;;;;;;;25.48;6.13;;;14.90;61.20;;;;;;1064186;27;20027;-72
2021/01/01 01:15:59;;;;;;;23.02;5.70;;;14.80;61.20;;;;;;1058190;27;20407;-71
2021/01/01 01:16:33;;;;;;;26.67;6.80;;;14.80;61.40;;;;;;1053196;28;20024;-72
2021/01/01 01:17:35;;;;;;;24.73;5.90;;;14.80;61.20;;;;;;1051667;28;20020;-71
2021/01/01 01:18:39;;;;;;;20.15;5.45;;;14.70;61.40;;;;;;1053727;28;20120;-70
2021/01/01 01:19:33;;;;;;;22.35;5.75;;;14.70;61.20;;;;;;1049647;28;20463;-71
2021/01/01 01:20:09;;;;;;;21.25;5.63;;;14.60;61.50;;;;;;1038515;28;20502;-70
2021/01/01 01:22:00;;;;;;;21.48;5.70;;;14.60;61.50;;;;;;1057330;27;20088;-71
2021/01/01 01:22:42;;;;;;;23.05;6.05;;;14.60;61.60;;;;;;1064339;27;20114;-71
2021/01/01 01:23:19;;;;;;;25.98;6.03;;;14.60;61.60;;;;;;1062495;27;20030;-71
2021/01/01 01:23:54;;;;;;;21.15;5.88;;;14.50;61.80;;;;;;1064968;27;20015;-71
2021/01/01 01:24:26;;;;;;;19.08;5.90;;;14.50;61.90;;;;;;1059231;27;20011;-71
2021/01/01 01:24:57;;;;;;;22.58;6.38;;;14.50;61.90;;;;;;1059706;27;20011;-70
2021/01/01 01:25:29;;;;;;;22.02;6.05;;;14.50;61.90;;;;;;1056552;28;20053;-70
2021/01/01 01:26:00;;;;;;;24.27;5.88;;;14.50;62.00;;;;;;1052209;28;20078;-71
2021/01/01 01:26:32;;;;;;;20.23;6.00;;;14.50;62.00;;;;;;1052443;28;20098;-71
2021/01/01 01:27:09;;;;;;;22.30;5.75;;;14.60;62.00;;;;;;1048977;28;20048;-71
2021/01/01 01:27:40;;;;;;;22.45;6.20;;;14.50;62.00;;;;;;1054301;28;20008;-70
2021/01/01 01:28:12;;;;;;;18.77;6.00;;;14.60;62.00;;;;;;1058343;27;20473;-71
2021/01/01 01:28:44;;;;;;;27.48;6.53;;;14.60;62.00;;;;;;1061129;27;20042;-70
2021/01/01 01:29:15;;;;;;;22.52;6.88;;;14.60;62.00;;;;;;1057972;27;20436;-70
2021/01/01 01:29:47;;;;;;;23.55;6.47;;;14.60;61.90;;;;;;1057111;28;20026;-70
2021/01/01 01:30:18;;;;;;;23.08;6.45;;;14.60;61.80;;;;;;1055766;28;20012;-71
2021/01/01 01:30:50;;;;;;;22.38;6.72;;;14.60;61.80;;;;;;1057581;28;20004;-71
2021/01/01 01:31:21;;;;;;;19.40;6.07;;;14.60;61.80;;;;;;1061199;27;20015;-71
2021/01/01 01:31:52;;;;;;;27.77;6.88;;;14.60;61.80;;;;;;1057431;28;20035;-70
2021/01/01 01:32:24;;;;;;;21.50;6.50;;;14.50;61.70;;;;;;1056973;28;20019;-70
2021/01/01 01:32:55;;;;;;;24.17;6.63;;;14.50;61.80;;;;;;1057164;28;20061;-71
2021/01/01 01:33:27;;;;;;;25.13;6.28;;;14.50;61.80;;;;;;1057784;28;20376;-71
2021/01/01 01:33:58;;;;;;;23.42;6.63;;;14.50;61.90;;;;;;1058644;27;20015;-71
2021/01/01 01:34:30;;;;;;;24.05;6.57;;;14.50;62.00;;;;;;1065742;27;20007;-71
2021/01/01 01:35:01;;;;;;;20.80;6.50;;;14.40;62.00;;;;;;1060656;27;20015;-71
2021/01/01 01:35:33;;;;;;;25.73;7.63;;;14.40;62.20;;;;;;1061133;27;20170;-71
2021/01/01 01:36:04;;;;;;;21.85;6.40;;;14.40;62.20;;;;;;1061338;27;20015;-70
2021/01/01 01:36:36;;;;;;;20.55;6.25;;;14.30;62.40;;;;;;1059020;27;20022;-71
2021/01/01 01:37:07;;;;;;;21.35;6.32;;;14.30;62.50;;;;;;1058318;27;21398;-71
2021/01/01 01:37:39;;;;;;;16.60;5.70;;;14.30;62.60;;;;;;1059794;27;20054;-71
2021/01/01 01:38:11;;;;;;;21.85;6.45;;;14.20;62.60;;;;;;1064499;27;20371;-71
2021/01/01 01:38:42;;;;;;;26.38;6.38;;;14.20;62.70;;;;;;1063847;27;20023;-71
2021/01/01 01:39:14;;;;;;;25.23;6.50;;;14.20;62.70;;;;;;1064291;27;20038;-72
2021/01/01 01:39:45;;;;;;;23.73;6.05;;;14.20;62.80;;;;;;1064051;27;20014;-70
2021/01/01 01:40:16;;;;;;;20.55;5.90;;;14.20;62.90;;;;;;1060521;27;20018;-72
2021/01/01 01:40:48;;;;;;;21.58;5.90;;;14.10;62.90;;;;;;1061998;27;20460;-70
2021/01/01 01:41:19;;;;;;;22.10;6.18;;;14.10;63.00;;;;;;1065298;27;20343;-71
2021/01/01 01:41:51;;;;;;;20.05;6.38;;;14.10;63.00;;;;;;1065049;27;20015;-70
2021/01/01 01:42:22;;;;;;;23.55;6.22;;;14.00;63.30;;;;;;1064653;27;20023;-71
2021/01/01 01:42:54;;;;;;;31.65;10.73;;;14.00;63.40;;;;;;1062574;27;20019;-71
2021/01/01 01:43:26;;;;;;;23.52;7.38;;;14.00;63.40;;;;;;1064538;27;20492;-71
2021/01/01 01:43:57;;;;;;;20.73;6.60;;;13.90;63.40;;;;;;1065848;27;20143;-72
2021/01/01 01:44:28;;;;;;;20.35;6.05;;;13.90;63.40;;;;;;1063663;27;20087;-72
2021/01/01 01:45:00;;;;;;;23.40;5.97;;;13.90;63.60;;;;;;1065467;27;20094;-72
2021/01/01 01:45:31;;;;;;;24.25;5.93;;;13.80;63.70;;;;;;1065615;27;20026;-72
2021/01/01 01:46:03;;;;;;;22.60;5.97;;;13.70;63.80;;;;;;1065563;27;20041;-73
2021/01/01 01:46:45;;;;;;;22.88;6.32;;;13.70;63.90;;;;;;1060801;27;20118;-72
2021/01/01 01:47:20;;;;;;;22.17;5.93;;;13.70;64.00;;;;;;1060743;27;20126;-72
2021/01/01 01:47:53;;;;;;;23.08;6.10;;;13.60;64.10;;;;;;1059447;27;20026;-71
2021/01/01 01:48:33;;;;;;;22.23;5.40;;;13.60;64.20;;;;;;1059792;27;20141;-72
2021/01/01 01:49:05;;;;;;;27.05;5.88;;;13.50;65.00;;;;;;1060516;27;20042;-71
2021/01/01 01:49:37;;;;;;;21.30;5.88;;;13.40;64.50;;;;;;1056947;28;20030;-72
2021/01/01 01:50:09;;;;;;;22.40;6.07;;;13.50;64.60;;;;;;1056508;28;20012;-72
2021/01/01 01:50:40;;;;;;;22.77;6.22;;;13.40;64.60;;;;;;1057179;28;20411;-72
2021/01/01 01:51:12;;;;;;;22.42;5.85;;;13.40;64.70;;;;;;1057043;28;20015;-72
2021/01/01 01:51:47;;;;;;;20.48;6.18;;;13.40;64.80;;;;;;1056973;28;20058;-72
2021/01/01 01:52:19;;;;;;;22.42;6.78;;;13.40;64.90;;;;;;1052910;28;20030;-72
2021/01/01 01:52:51;;;;;;;23.08;5.80;;;13.30;65.00;;;;;;1048676;28;20016;-72
2021/01/01 01:53:25;;;;;;;21.25;5.88;;;13.30;65.10;;;;;;1049860;28;20044;-72
2021/01/01 01:53:57;;;;;;;22.10;6.00;;;13.20;65.20;;;;;;1054415;28;20016;-72
2021/01/01 01:54:28;;;;;;;19.15;5.85;;;13.20;65.30;;;;;;1058015;27;20020;-72
2021/01/01 01:55:01;;;;;;;23.15;5.85;;;13.20;65.50;;;;;;1061549;27;20022;-72
2021/01/01 01:55:33;;;;;;;18.20;5.95;;;13.10;65.50;;;;;;1061612;27;20372;-72
2021/01/01 01:56:06;;;;;;;18.65;5.63;;;13.10;65.60;;;;;;1061472;27;20019;-72
2021/01/01 01:56:37;;;;;;;23.00;6.05;;;13.10;65.70;;;;;;1061565;27;20039;-72
2021/01/01 01:57:09;;;;;;;22.02;6.30;;;13.10;65.60;;;;;;1063287;27;20019;-72
2021/01/01 01:57:42;;;;;;;21.20;5.93;;;13.10;65.80;;;;;;1060865;27;20077;-71
2021/01/01 01:58:14;;;;;;;22.00;6.13;;;13.10;65.90;;;;;;1060641;27;20015;-72
2021/01/01 01:58:46;;;;;;;22.40;6.05;;;13.00;66.00;;;;;;1057034;28;20027;-72
2021/01/01 01:59:21;;;;;;;27.25;6.97;;;13.00;66.10;;;;;;1057833;27;20016;-72
2021/01/01 01:59:56;;;;;;;20.27;6.10;;;13.00;66.10;;;;;;1061357;27;20341;-72
2021/01/01 02:01:17;;;;;;;26.92;6.82;;;13.00;66.30;;;;;;1060461;27;20345;-72
2021/01/01 02:01:48;;;;;;;19.20;5.70;;;13.00;66.30;;;;;;1056295;28;20457;-71
2021/01/01 02:02:21;;;;;;;24.50;6.43;;;13.00;66.20;;;;;;1059819;27;20033;-71
2021/01/01 02:02:56;;;;;;;19.48;6.20;;;13.00;66.30;;;;;;1061243;27;20045;-72
2021/01/01 02:03:31;;;;;;;20.40;6.25;;;12.90;66.40;;;;;;1057106;28;20348;-72
2021/01/01 02:04:03;;;;;;;21.63;5.80;;;12.90;66.50;;;;;;1056186;28;20092;-71
2021/01/01 02:04:34;;;;;;;21.30;6.43;;;12.90;66.60;;;;;;1058604;27;20024;-72
2021/01/01 02:05:07;;;;;;;21.70;5.93;;;12.90;66.80;;;;;;1061643;27;20011;-72
2021/01/01 02:05:38;;;;;;;22.13;6.63;;;12.90;66.90;;;;;;1061248;27;20019;-72
2021/01/01 02:06:09;;;;;;;25.58;6.60;;;12.90;67.00;;;;;;1056899;28;20023;-72
2021/01/01 02:06:43;;;;;;;23.92;6.32;;;12.90;67.10;;;;;;1057181;28;20494;-72
2021/01/01 02:07:15;;;;;;;21.35;6.40;;;12.80;67.10;;;;;;1053469;28;20020;-72
2021/01/01 02:07:47;;;;;;;22.25;6.68;;;12.80;67.20;;;;;;1057978;27;20023;-72
2021/01/01 02:08:20;;;;;;;26.25;6.72;;;12.80;67.20;;;;;;1061229;27;20011;-72
2021/01/01 02:08:52;;;;;;;23.30;6.18;;;12.80;67.30;;;;;;1062188;27;20018;-72
2021/01/01 02:09:24;;;;;;;21.52;6.65;;;12.80;67.30;;;;;;1064894;27;20027;-71
2021/01/01 02:09:55;;;;;;;23.70;6.80;;;12.80;67.40;;;;;;1061235;27;20023;-72
2021/01/01 02:10:26;;;;;;;23.80;6.72;;;12.70;67.50;;;;;;1059237;28;20110;-71
2021/01/01 02:10:59;;;;;;;24.95;6.43;;;12.70;67.60;;;;;;1058627;27;20035;-72
2021/01/01 02:11:32;;;;;;;20.58;6.55;;;12.70;67.80;;;;;;1054621;28;20028;-72
2021/01/01 02:12:04;;;;;;;25.08;6.88;;;12.70;67.90;;;;;;1056845;28;20031;-71
2021/01/01 02:12:35;;;;;;;27.48;6.65;;;12.60;67.90;;;;;;1060808;27;20070;-71
2021/01/01 02:13:08;;;;;;;19.52;6.10;;;12.60;68.00;;;;;;1061194;27;20487;-72
2021/01/01 02:13:40;;;;;;;24.38;6.70;;;12.60;68.10;;;;;;1064828;27;20070;-72
2021/01/01 02:14:12;;;;;;;24.98;6.65;;;12.60;68.10;;;;;;1060364;27;20026;-71
2021/01/01 02:14:44;;;;;;;25.65;6.82;;;12.60;68.20;;;;;;1061071;28;20341;-72
2021/01/01 02:15:16;;;;;;;20.40;6.70;;;12.60;68.20;;;;;;1061167;27;20023;-72
2021/01/01 02:15:48;;;;;;;21.40;6.25;;;12.60;68.30;;;;;;1055714;28;20052;-71
2021/01/01 02:16:21;;;;;;;24.98;6.65;;;12.50;68.40;;;;;;1056714;28;20063;-72
2021/01/01 02:16:53;;;;;;;20.48;6.25;;;12.50;68.50;;;;;;1057334;28;20019;-72
2021/01/01 02:17:24;;;;;;;27.17;6.70;;;12.50;68.60;;;;;;1061206;27;20472;-72
2021/01/01 02:17:57;;;;;;;26.58;6.57;;;12.50;68.60;;;;;;1058884;27;20019;-72
2021/01/01 02:18:38;;;;;;;20.08;5.75;;;12.50;68.80;;;;;;1059864;27;20080;-71
2021/01/01 02:19:13;;;;;;;28.67;7.38;;;12.50;68.90;;;;;;1058979;27;20038;-71
2021/01/01 02:19:44;;;;;;;23.38;6.30;;;12.50;68.90;;;;;;1059873;27;20024;-71
2021/01/01 02:20:16;;;;;;;28.52;6.75;;;12.50;68.80;;;;;;1057701;28;20069;-72
2021/01/01 02:20:47;;;;;;;24.55;5.88;;;12.50;68.90;;;;;;1056734;27;20039;-72
2021/01/01 02:21:19;;;;;;;25.52;6.30;;;12.50;68.90;;;;;;1057990;27;20068;-72
2021/01/01 02:21:57;;;;;;;24.10;6.18;;;12.40;68.90;;;;;;1061032;27;20113;-72
2021/01/01 02:22:35;;;;;;;24.80;6.50;;;12.50;69.00;;;;;;1061044;28;20020;-71
2021/01/01 02:23:06;;;;;;;23.23;6.50;;;12.50;68.90;;;;;;1061094;27;20019;-72
2021/01/01 02:23:38;;;;;;;16.98;5.45;;;12.40;68.90;;;;;;1061327;27;20452;-72
2021/01/01 02:24:10;;;;;;;22.50;6.40;;;12.50;68.90;;;;;;1059216;28;20526;-72
2021/01/01 02:24:42;;;;;;;21.05;5.85;;;12.40;68.80;;;;;;1061561;28;20019;-72
2021/01/01 02:25:13;;;;;;;21.98;5.65;;;12.40;68.90;;;;;;1056905;28;20144;-72
2021/01/01 02:25:45;;;;;;;22.60;5.80;;;12.40;68.90;;;;;;1057320;28;20432;-72
2021/01/01 02:26:16;;;;;;;22.08;5.88;;;12.40;69.00;;;;;;1059923;28;20019;-72
2021/01/01 02:26:47;;;;;;;23.88;6.10;;;12.40;69.00;;;;;;1057483;28;20027;-72
2021/01/01 02:27:19;;;;;;;20.25;6.20;;;12.40;69.10;;;;;;1058577;28;20019;-72
2021/01/01 02:27:50;;;;;;;27.98;6.82;;;12.30;69.10;;;;;;1057783;28;20052;-71
2021/01/01 02:28:22;;;;;;;17.13;5.82;;;12.40;69.10;;;;;;1060752;27;20441;-72
2021/01/01 02:28:53;;;;;;;20.25;6.38;;;12.40;69.10;;;;;;1057645;28;20019;-72
2021/01/01 02:29:24;;;;;;;22.08;5.82;;;12.40;69.20;;;;;;1053653;28;20069;-71
2021/01/01 02:29:56;;;;;;;23.05;6.35;;;12.40;69.20;;;;;;1054612;28;20034;-72
2021/01/01 02:30:27;;;;;;;26.00;6.75;;;12.40;69.30;;;;;;1051302;28;20024;-72
2021/01/01 02:30:59;;;;;;;23.25;6.40;;;12.40;69.30;;;;;;1053107;28;20032;-72
2021/01/01 02:31:30;;;;;;;22.45;6.07;;;12.40;69.20;;;;;;1052626;28;20115;-72
2021/01/01 02:32:03;;;;;;;23.27;6.05;;;12.40;69.10;;;;;;1052908;28;20027;-72
2021/01/01 02:32:34;;;;;;;22.10;6.95;;;12.40;69.10;;;;;;1056446;28;20030;-72
2021/01/01 02:33:06;;;;;;;20.05;5.88;;;12.40;69.20;;;;;;1059470;27;20392;-72
2021/01/01 02:33:37;;;;;;;23.95;7.63;;;12.40;69.20;;;;;;1060563;28;20027;-72
2021/01/01 02:34:09;;;;;;;28.38;7.85;;;12.30;69.20;;;;;;1059830;28;20019;-71
2021/01/01 02:34:40;;;;;;;21.05;6.65;;;12.30;69.20;;;;;;1052683;28;20077;-72
2021/01/01 02:35:12;;;;;;;27.42;6.82;;;12.30;69.30;;;;;;1054020;28;20034;-72
2021/01/01 02:35:43;;;;;;;22.92;5.97;;;12.30;69.50;;;;;;1059986;28;20077;-71
2021/01/01 02:36:15;;;;;;;21.98;6.43;;;12.30;69.50;;;;;;1060058;28;20132;-72
2021/01/01 02:36:46;;;;;;;21.92;6.18;;;12.30;69.60;;;;;;1058778;28;20034;-71
2021/01/01 02:37:18;;;;;;;21.40;6.43;;;12.30;69.60;;;;;;1060878;27;20499;-72
2021/01/01 02:37:49;;;;;;;19.13;6.00;;;12.30;69.70;;;;;;1064457;27;20023;-72
2021/01/01 02:38:21;;;;;;;26.30;6.70;;;12.20;69.70;;;;;;1065222;27;20027;-72
2021/01/01 02:38:52;;;;;;;28.30;7.53;;;12.20;69.80;;;;;;1064156;27;20026;-72
2021/01/01 02:39:23;;;;;;;25.60;6.60;;;12.20;69.80;;;;;;1065695;27;20019;-72
2021/01/01 02:39:55;;;;;;;21.67;6.57;;;12.20;69.80;;;;;;1067058;27;20017;-72
2021/01/01 02:40:26;;;;;;;22.67;6.47;;;12.20;69.80;;;;;;1060774;28;20027;-72
2021/01/01 02:40:58;;;;;;;21.38;6.13;;;12.20;69.80;;;;;;1061121;28;20014;-72
2021/01/01 02:41:29;;;;;;;23.52;6.15;;;12.20;69.90;;;;;;1061216;28;20437;-72
2021/01/01 02:42:00;;;;;;;22.60;6.40;;;12.20;69.80;;;;;;1057040;28;20020;-72
2021/01/01 02:42:32;;;;;;;19.48;6.50;;;12.20;69.80;;;;;;1056456;28;20405;-71
2021/01/01 02:43:04;;;;;;;27.48;6.57;;;12.20;69.70;;;;;;1056573;28;20081;-71
2021/01/01 02:43:35;;;;;;;23.73;6.50;;;12.20;69.80;;;;;;1057152;28;20004;-72
2021/01/01 02:44:06;;;;;;;24.92;6.97;;;12.20;69.80;;;;;;1055924;28;20066;-71
2021/01/01 02:44:38;;;;;;;25.85;6.93;;;12.20;69.80;;;;;;1058613;28;20156;-72
2021/01/01 02:45:10;;;;;;;26.38;6.40;;;12.20;69.90;;;;;;1061058;28;20085;-72
2021/01/01 02:45:41;;;;;;;23.08;7.03;;;12.20;70.00;;;;;;1063272;27;20014;-72
2021/01/01 02:46:13;;;;;;;23.63;7.25;;;12.20;70.00;;;;;;1061685;27;20023;-72
2021/01/01 02:46:44;;;;;;;26.38;6.72;;;12.20;70.00;;;;;;1064188;27;20102;-71
2021/01/01 02:47:16;;;;;;;21.25;6.82;;;12.20;70.10;;;;;;1065663;27;20503;-72
2021/01/01 02:47:47;;;;;;;27.92;7.57;;;12.10;70.10;;;;;;1064022;27;20014;-72
2021/01/01 02:48:20;;;;;;;22.25;6.93;;;12.20;70.30;;;;;;1060355;27;20138;-71
2021/01/01 02:48:52;;;;;;;22.40;7.00;;;12.10;70.30;;;;;;1059082;28;20015;-72
2021/01/01 02:49:23;;;;;;;26.40;6.93;;;12.10;70.30;;;;;;1057750;28;20056;-71
2021/01/01 02:49:55;;;;;;;24.50;7.13;;;12.10;70.40;;;;;;1058751;27;20099;-72
2021/01/01 02:50:26;;;;;;;22.88;6.57;;;12.10;70.50;;;;;;1063556;27;20023;-72
2021/01/01 02:50:57;;;;;;;25.63;6.82;;;12.10;70.60;;;;;;1061788;27;20057;-72
2021/01/01 02:51:29;;;;;;;24.17;8.57;;;12.10;70.50;;;;;;1064693;27;20015;-72
2021/01/01 02:52:01;;;;;;;23.92;7.55;;;12.10;70.50;;;;;;1060549;28;20080;-71
2021/01/01 02:52:33;;;;;;;29.02;6.97;;;12.10;70.60;;;;;;1060675;28;20034;-72
2021/01/01 02:53:04;;;;;;;28.25;7.18;;;12.10;70.60;;;;;;1061260;28;20019;-72
2021/01/01 02:53:36;;;;;;;25.88;7.28;;;12.10;70.50;;;;;;1060708;27;20011;-71
2021/01/01 02:54:07;;;;;;;22.20;6.47;;;12.10;70.50;;;;;;1065367;27;20500;-71
2021/01/01 02:54:38;;;;;;;28.40;6.30;;;12.10;70.60;;;;;;1061155;28;20047;-72
2021/01/01 02:55:10;;;;;;;23.27;7.38;;;12.10;70.70;;;;;;1055439;28;20166;-72
2021/01/01 02:55:42;;;;;;;25.55;6.90;;;12.10;70.80;;;;;;1056835;28;20008;-72
2021/01/01 02:56:16;;;;;;;22.70;5.97;;;12.10;70.60;;;;;;1056644;28;20042;-72
2021/01/01 02:56:47;;;;;;;21.30;6.63;;;12.10;70.60;;;;;;1060997;28;20112;-72